sensor_id;sensor_type;location;lat;lon;timestamp;temperature;humidity
15343;DHT22;7771;48.478;8.936;2023-04-30T00:00:32;13.70;99.90
15343;DHT22;7771;48.478;8.936;2023-04-30T00:03:00;13.60;99.90
15343;DHT22;7771;48.478;8.936;2023-04-30T00:05:28;13.60;99.90
15343;DHT22;7771;48.478;8.936;2023-04-30T00:07:56;13.50;99.90
15343;DHT22;7771;48.478;8.936;2023-04-30T00:10:22;13.50;99.90
15343;DHT22;7771;48.478;8.936;2023-04-30T00:12:49;13.50;99.90
15343;DHT22;7771;48.478;8.936;2023-04-30T00:15:17;13.60;99.90
15343;DHT22;7771;48.478;8.936;2023-04-30T00:20:13;13.60;99.90
15343;DHT22;7771;48.478;8.936;2023-04-30T00:22:39;13.60;99.90
15343;DHT22;7771;48.478;8.936;2023-04-30T00:25:07;13.60;99.90
15343;DHT22;7771;48.478;8.936;2023-04-30T00:27:33;13.60;99.90
15343;DHT22;7771;48.478;8.936;2023-04-30T00:30:01;13.60;99.90
15343;DHT22;7771;48.478;8.936;2023-04-30T00:32:27;13.50;99.90
15343;DHT22;7771;48.478;8.936;2023-04-30T00:34:55;13.60;99.90
15343;DHT22;7771;48.478;8.936;2023-04-30T00:37:22;13.60;99.90
15343;DHT22;7771;48.478;8.936;2023-04-30T00:39:49;13.60;99.90
15343;DHT22;7771;48.478;8.936;2023-04-30T00:42:16;13.60;99.90
15343;DHT22;7771;48.478;8.936;2023-04-30T00:44:43;13.60;99.90
15343;DHT22;7771;48.478;8.936;2023-04-30T00:47:10;13.60;99.90
15343;DHT22;7771;48.478;8.936;2023-04-30T00:49:36;13.60;99.90
15343;DHT22;7771;48.478;8.936;2023-04-30T00:52:04;13.60;99.90
15343;DHT22;7771;48.478;8.936;2023-04-30T00:54:32;13.60;99.90
15343;DHT22;7771;48.478;8.936;2023-04-30T00:56:58;13.60;99.90
15343;DHT22;7771;48.478;8.936;2023-04-30T00:59:25;13.60;99.90
15343;DHT22;7771;48.478;8.936;2023-04-30T01:01:52;13.60;99.90
15343;DHT22;7771;48.478;8.936;2023-04-30T01:04:19;13.60;99.90
15343;DHT22;7771;48.478;8.936;2023-04-30T01:06:46;13.60;99.90
15343;DHT22;7771;48.478;8.936;2023-04-30T01:09:13;13.60;99.90
15343;DHT22;7771;48.478;8.936;2023-04-30T01:11:57;13.60;99.90
15343;DHT22;7771;48.478;8.936;2023-04-30T01:14:27;13.60;99.90
15343;DHT22;7771;48.478;8.936;2023-04-30T01:19:40;13.60;99.90
15343;DHT22;7771;48.478;8.936;2023-04-30T01:22:09;13.60;99.90
15343;DHT22;7771;48.478;8.936;2023-04-30T01:24:42;13.60;99.90
15343;DHT22;7771;48.478;8.936;2023-04-30T01:27:22;13.70;99.90
15343;DHT22;7771;48.478;8.936;2023-04-30T01:29:44;13.70;99.90
15343;DHT22;7771;48.478;8.936;2023-04-30T01:32:10;13.70;99.90
15343;DHT22;7771;48.478;8.936;2023-04-30T01:34:37;13.60;99.90
15343;DHT22;7771;48.478;8.936;2023-04-30T01:37:46;13.60;99.90
15343;DHT22;7771;48.478;8.936;2023-04-30T01:40:17;13.60;99.90
15343;DHT22;7771;48.478;8.936;2023-04-30T01:42:44;13.60;99.90
15343;DHT22;7771;48.478;8.936;2023-04-30T01:47:51;13.50;99.90
15343;DHT22;7771;48.478;8.936;2023-04-30T01:50:24;13.50;99.90
15343;DHT22;7771;48.478;8.936;2023-04-30T01:52:52;13.50;99.90
15343;DHT22;7771;48.478;8.936;2023-04-30T01:55:23;13.50;99.90
15343;DHT22;7771;48.478;8.936;2023-04-30T01:57:54;13.60;99.90
15343;DHT22;7771;48.478;8.936;2023-04-30T02:00:19;13.60;99.90
15343;DHT22;7771;48.478;8.936;2023-04-30T02:02:46;13.60;99.90
15343;DHT22;7771;48.478;8.936;2023-04-30T02:05:13;13.60;99.90
15343;DHT22;7771;48.478;8.936;2023-04-30T02:10:09;13.50;99.90
15343;DHT22;7771;48.478;8.936;2023-04-30T02:12:37;13.50;99.90
15343;DHT22;7771;48.478;8.936;2023-04-30T02:15:03;13.50;99.90
15343;DHT22;7771;48.478;8.936;2023-04-30T02:17:31;13.50;99.90
15343;DHT22;7771;48.478;8.936;2023-04-30T02:19:59;13.50;99.90
15343;DHT22;7771;48.478;8.936;2023-04-30T02:22:26;13.50;99.90
15343;DHT22;7771;48.478;8.936;2023-04-30T02:24:53;13.50;99.90
15343;DHT22;7771;48.478;8.936;2023-04-30T02:27:23;13.50;99.90
15343;DHT22;7771;48.478;8.936;2023-04-30T02:29:49;13.50;99.90
15343;DHT22;7771;48.478;8.936;2023-04-30T02:32:16;13.50;99.90
15343;DHT22;7771;48.478;8.936;2023-04-30T02:34:43;13.40;99.90
15343;DHT22;7771;48.478;8.936;2023-04-30T02:37:10;13.50;99.90
15343;DHT22;7771;48.478;8.936;2023-04-30T02:42:06;13.50;99.90
15343;DHT22;7771;48.478;8.936;2023-04-30T02:44:34;13.40;99.90
15343;DHT22;7771;48.478;8.936;2023-04-30T02:47:00;13.40;99.90
15343;DHT22;7771;48.478;8.936;2023-04-30T02:49:28;13.30;99.90
15343;DHT22;7771;48.478;8.936;2023-04-30T02:51:55;13.30;99.90
15343;DHT22;7771;48.478;8.936;2023-04-30T02:54:22;13.30;99.90
15343;DHT22;7771;48.478;8.936;2023-04-30T02:56:50;13.30;99.90
15343;DHT22;7771;48.478;8.936;2023-04-30T02:59:17;13.30;99.90
15343;DHT22;7771;48.478;8.936;2023-04-30T03:04:12;13.30;99.90
15343;DHT22;7771;48.478;8.936;2023-04-30T03:06:39;13.30;99.90
15343;DHT22;7771;48.478;8.936;2023-04-30T03:09:07;13.30;99.90
15343;DHT22;7771;48.478;8.936;2023-04-30T03:11:33;13.30;99.90
15343;DHT22;7771;48.478;8.936;2023-04-30T03:14:00;13.30;99.90
15343;DHT22;7771;48.478;8.936;2023-04-30T03:16:27;13.30;99.90
15343;DHT22;7771;48.478;8.936;2023-04-30T03:18:53;13.30;99.90
15343;DHT22;7771;48.478;8.936;2023-04-30T03:21:20;13.30;99.90
15343;DHT22;7771;48.478;8.936;2023-04-30T03:23:47;13.30;99.90
15343;DHT22;7771;48.478;8.936;2023-04-30T03:26:14;13.30;99.90
15343;DHT22;7771;48.478;8.936;2023-04-30T03:31:10;13.20;99.90
15343;DHT22;7771;48.478;8.936;2023-04-30T03:36:05;13.20;99.90
15343;DHT22;7771;48.478;8.936;2023-04-30T03:38:32;13.10;99.90
15343;DHT22;7771;48.478;8.936;2023-04-30T03:40:59;13.20;99.90
15343;DHT22;7771;48.478;8.936;2023-04-30T03:43:27;13.20;99.90
15343;DHT22;7771;48.478;8.936;2023-04-30T03:45:54;13.20;99.90
15343;DHT22;7771;48.478;8.936;2023-04-30T03:48:22;13.10;99.90
15343;DHT22;7771;48.478;8.936;2023-04-30T03:50:49;13.10;99.90
15343;DHT22;7771;48.478;8.936;2023-04-30T03:53:16;13.00;99.90
15343;DHT22;7771;48.478;8.936;2023-04-30T03:55:43;13.00;99.90
15343;DHT22;7771;48.478;8.936;2023-04-30T03:58:10;13.00;99.90
15343;DHT22;7771;48.478;8.936;2023-04-30T04:00:38;13.00;99.90
15343;DHT22;7771;48.478;8.936;2023-04-30T04:03:05;13.00;99.90
15343;DHT22;7771;48.478;8.936;2023-04-30T04:05:31;12.90;99.90
15343;DHT22;7771;48.478;8.936;2023-04-30T04:07:59;12.90;99.90
15343;DHT22;7771;48.478;8.936;2023-04-30T04:10:25;12.80;99.90
15343;DHT22;7771;48.478;8.936;2023-04-30T04:12:53;12.90;99.90
15343;DHT22;7771;48.478;8.936;2023-04-30T04:15:20;12.90;99.90
15343;DHT22;7771;48.478;8.936;2023-04-30T04:17:46;12.80;99.90
15343;DHT22;7771;48.478;8.936;2023-04-30T04:20:14;12.80;99.90
15343;DHT22;7771;48.478;8.936;2023-04-30T04:22:42;12.80;99.90
15343;DHT22;7771;48.478;8.936;2023-04-30T04:25:10;12.80;99.90
15343;DHT22;7771;48.478;8.936;2023-04-30T04:27:36;12.80;99.90
15343;DHT22;7771;48.478;8.936;2023-04-30T04:30:04;12.80;99.90
15343;DHT22;7771;48.478;8.936;2023-04-30T04:32:31;12.80;99.90
15343;DHT22;7771;48.478;8.936;2023-04-30T04:34:58;12.80;99.90
15343;DHT22;7771;48.478;8.936;2023-04-30T04:37:25;12.80;99.90
15343;DHT22;7771;48.478;8.936;2023-04-30T04:39:52;12.80;99.90
15343;DHT22;7771;48.478;8.936;2023-04-30T04:42:20;12.80;99.90
15343;DHT22;7771;48.478;8.936;2023-04-30T04:44:47;12.80;99.90
15343;DHT22;7771;48.478;8.936;2023-04-30T04:47:14;12.80;99.90
15343;DHT22;7771;48.478;8.936;2023-04-30T04:52:11;12.90;99.90
15343;DHT22;7771;48.478;8.936;2023-04-30T04:54:39;12.90;99.90
15343;DHT22;7771;48.478;8.936;2023-04-30T04:57:05;12.90;99.90
15343;DHT22;7771;48.478;8.936;2023-04-30T04:59:33;13.00;99.90
15343;DHT22;7771;48.478;8.936;2023-04-30T05:02:00;13.00;99.90
15343;DHT22;7771;48.478;8.936;2023-04-30T05:04:28;13.10;99.90
15343;DHT22;7771;48.478;8.936;2023-04-30T05:06:55;13.10;99.90
15343;DHT22;7771;48.478;8.936;2023-04-30T05:09:22;13.10;99.90
15343;DHT22;7771;48.478;8.936;2023-04-30T05:11:48;13.10;99.90
15343;DHT22;7771;48.478;8.936;2023-04-30T05:14:16;13.20;99.90
15343;DHT22;7771;48.478;8.936;2023-04-30T05:19:11;13.30;99.90
15343;DHT22;7771;48.478;8.936;2023-04-30T05:21:38;13.20;99.90
15343;DHT22;7771;48.478;8.936;2023-04-30T05:24:04;13.20;99.90
15343;DHT22;7771;48.478;8.936;2023-04-30T05:26:31;13.30;99.90
15343;DHT22;7771;48.478;8.936;2023-04-30T05:28:57;13.30;99.90
15343;DHT22;7771;48.478;8.936;2023-04-30T05:31:24;13.30;99.90
15343;DHT22;7771;48.478;8.936;2023-04-30T05:33:51;13.30;99.90
15343;DHT22;7771;48.478;8.936;2023-04-30T05:36:18;13.30;99.90
15343;DHT22;7771;48.478;8.936;2023-04-30T05:38:45;13.40;99.90
15343;DHT22;7771;48.478;8.936;2023-04-30T05:41:13;13.40;99.90
15343;DHT22;7771;48.478;8.936;2023-04-30T05:46:07;13.50;99.90
15343;DHT22;7771;48.478;8.936;2023-04-30T05:48:35;13.50;99.90
15343;DHT22;7771;48.478;8.936;2023-04-30T05:51:03;13.50;99.90
15343;DHT22;7771;48.478;8.936;2023-04-30T05:53:30;13.50;99.90
15343;DHT22;7771;48.478;8.936;2023-04-30T05:55:57;13.50;99.90
15343;DHT22;7771;48.478;8.936;2023-04-30T05:58:25;13.50;99.90
15343;DHT22;7771;48.478;8.936;2023-04-30T06:00:52;13.50;99.90
15343;DHT22;7771;48.478;8.936;2023-04-30T06:03:18;13.50;99.90
15343;DHT22;7771;48.478;8.936;2023-04-30T06:05:46;13.50;99.90
15343;DHT22;7771;48.478;8.936;2023-04-30T06:08:13;13.50;99.90
15343;DHT22;7771;48.478;8.936;2023-04-30T06:10:40;13.60;99.90
15343;DHT22;7771;48.478;8.936;2023-04-30T06:13:07;13.60;99.90
15343;DHT22;7771;48.478;8.936;2023-04-30T06:15:34;13.60;99.90
15343;DHT22;7771;48.478;8.936;2023-04-30T06:18:02;13.70;99.90
15343;DHT22;7771;48.478;8.936;2023-04-30T06:20:30;13.70;99.90
15343;DHT22;7771;48.478;8.936;2023-04-30T06:22:56;13.60;99.90
15343;DHT22;7771;48.478;8.936;2023-04-30T06:25:24;13.60;99.90
15343;DHT22;7771;48.478;8.936;2023-04-30T06:27:51;13.70;99.90
15343;DHT22;7771;48.478;8.936;2023-04-30T06:30:19;13.80;99.90
15343;DHT22;7771;48.478;8.936;2023-04-30T06:32:45;13.80;99.90
15343;DHT22;7771;48.478;8.936;2023-04-30T06:35:13;13.90;99.90
15343;DHT22;7771;48.478;8.936;2023-04-30T06:37:39;14.10;99.90
15343;DHT22;7771;48.478;8.936;2023-04-30T06:40:07;14.30;99.90
15343;DHT22;7771;48.478;8.936;2023-04-30T06:42:33;14.40;99.90
15343;DHT22;7771;48.478;8.936;2023-04-30T06:47:29;14.80;99.90
15343;DHT22;7771;48.478;8.936;2023-04-30T06:49:59;15.00;99.90
15343;DHT22;7771;48.478;8.936;2023-04-30T06:52:26;15.20;99.90
15343;DHT22;7771;48.478;8.936;2023-04-30T06:54:53;15.40;99.90
15343;DHT22;7771;48.478;8.936;2023-04-30T06:57:20;15.60;99.90
15343;DHT22;7771;48.478;8.936;2023-04-30T06:59:47;15.70;99.90
15343;DHT22;7771;48.478;8.936;2023-04-30T07:02:15;15.90;99.90
15343;DHT22;7771;48.478;8.936;2023-04-30T07:04:44;16.00;99.90
15343;DHT22;7771;48.478;8.936;2023-04-30T07:07:10;16.20;99.90
15343;DHT22;7771;48.478;8.936;2023-04-30T07:09:38;16.30;99.90
15343;DHT22;7771;48.478;8.936;2023-04-30T07:12:04;16.40;99.90
15343;DHT22;7771;48.478;8.936;2023-04-30T07:17:02;16.50;99.90
15343;DHT22;7771;48.478;8.936;2023-04-30T07:19:29;16.60;99.90
15343;DHT22;7771;48.478;8.936;2023-04-30T07:21:56;16.80;99.90
15343;DHT22;7771;48.478;8.936;2023-04-30T07:24:24;17.00;99.90
15343;DHT22;7771;48.478;8.936;2023-04-30T07:26:51;17.10;99.90
15343;DHT22;7771;48.478;8.936;2023-04-30T07:29:17;17.30;99.90
15343;DHT22;7771;48.478;8.936;2023-04-30T07:31:45;17.50;99.90
15343;DHT22;7771;48.478;8.936;2023-04-30T07:34:11;17.70;99.90
15343;DHT22;7771;48.478;8.936;2023-04-30T07:36:39;18.00;99.90
15343;DHT22;7771;48.478;8.936;2023-04-30T07:39:06;18.20;99.90
15343;DHT22;7771;48.478;8.936;2023-04-30T07:41:33;18.40;99.90
15343;DHT22;7771;48.478;8.936;2023-04-30T07:44:00;18.60;99.90
15343;DHT22;7771;48.478;8.936;2023-04-30T07:46:26;19.00;99.90
15343;DHT22;7771;48.478;8.936;2023-04-30T07:48:53;19.30;99.90
15343;DHT22;7771;48.478;8.936;2023-04-30T07:51:20;19.60;99.90
15343;DHT22;7771;48.478;8.936;2023-04-30T07:53:46;19.90;99.90
15343;DHT22;7771;48.478;8.936;2023-04-30T07:56:14;20.10;99.60
15343;DHT22;7771;48.478;8.936;2023-04-30T07:58:40;20.10;99.00
15343;DHT22;7771;48.478;8.936;2023-04-30T08:01:08;20.10;99.00
15343;DHT22;7771;48.478;8.936;2023-04-30T08:03:34;20.10;99.00
15343;DHT22;7771;48.478;8.936;2023-04-30T08:06:01;20.20;98.90
15343;DHT22;7771;48.478;8.936;2023-04-30T08:08:28;20.20;98.60
15343;DHT22;7771;48.478;8.936;2023-04-30T08:10:55;20.10;98.60
15343;DHT22;7771;48.478;8.936;2023-04-30T08:13:22;20.20;98.60
15343;DHT22;7771;48.478;8.936;2023-04-30T08:15:49;20.20;98.70
15343;DHT22;7771;48.478;8.936;2023-04-30T08:18:16;20.30;98.20
15343;DHT22;7771;48.478;8.936;2023-04-30T08:20:45;20.40;97.80
15343;DHT22;7771;48.478;8.936;2023-04-30T08:23:13;20.50;96.80
15343;DHT22;7771;48.478;8.936;2023-04-30T08:25:40;20.40;97.00
15343;DHT22;7771;48.478;8.936;2023-04-30T08:28:07;20.30;97.20
15343;DHT22;7771;48.478;8.936;2023-04-30T08:30:33;20.30;97.30
15343;DHT22;7771;48.478;8.936;2023-04-30T08:35:28;20.30;97.10
15343;DHT22;7771;48.478;8.936;2023-04-30T08:37:55;20.30;97.20
15343;DHT22;7771;48.478;8.936;2023-04-30T08:40:22;20.30;96.80
15343;DHT22;7771;48.478;8.936;2023-04-30T08:42:53;20.20;96.80
15343;DHT22;7771;48.478;8.936;2023-04-30T08:45:16;20.20;97.20
15343;DHT22;7771;48.478;8.936;2023-04-30T08:47:42;20.20;96.80
15343;DHT22;7771;48.478;8.936;2023-04-30T08:50:10;20.20;96.30
15343;DHT22;7771;48.478;8.936;2023-04-30T08:52:36;20.30;96.20
15343;DHT22;7771;48.478;8.936;2023-04-30T08:55:06;20.30;96.20
15343;DHT22;7771;48.478;8.936;2023-04-30T08:57:31;20.40;95.90
15343;DHT22;7771;48.478;8.936;2023-04-30T08:59:59;20.30;95.70
15343;DHT22;7771;48.478;8.936;2023-04-30T09:02:26;20.20;95.70
15343;DHT22;7771;48.478;8.936;2023-04-30T09:07:21;20.10;95.30
15343;DHT22;7771;48.478;8.936;2023-04-30T09:09:51;20.00;95.60
15343;DHT22;7771;48.478;8.936;2023-04-30T09:12:17;20.00;95.10
15343;DHT22;7771;48.478;8.936;2023-04-30T09:15:03;20.00;95.10
15343;DHT22;7771;48.478;8.936;2023-04-30T09:17:29;20.00;95.30
15343;DHT22;7771;48.478;8.936;2023-04-30T09:20:12;20.00;94.90
15343;DHT22;7771;48.478;8.936;2023-04-30T09:22:41;19.90;95.00
15343;DHT22;7771;48.478;8.936;2023-04-30T09:25:07;19.80;94.60
15343;DHT22;7771;48.478;8.936;2023-04-30T09:30:02;19.70;95.10
15343;DHT22;7771;48.478;8.936;2023-04-30T09:32:30;19.70;94.90
15343;DHT22;7771;48.478;8.936;2023-04-30T09:34:56;19.60;94.60
15343;DHT22;7771;48.478;8.936;2023-04-30T09:37:34;19.50;95.00
15343;DHT22;7771;48.478;8.936;2023-04-30T09:39:53;19.50;94.70
15343;DHT22;7771;48.478;8.936;2023-04-30T09:42:20;19.40;94.60
15343;DHT22;7771;48.478;8.936;2023-04-30T09:44:48;19.40;94.30
15343;DHT22;7771;48.478;8.936;2023-04-30T09:49:45;19.40;94.50
15343;DHT22;7771;48.478;8.936;2023-04-30T09:52:10;19.30;94.20
15343;DHT22;7771;48.478;8.936;2023-04-30T09:59:48;19.00;94.40
15343;DHT22;7771;48.478;8.936;2023-04-30T10:02:15;19.00;94.50
15343;DHT22;7771;48.478;8.936;2023-04-30T10:09:40;19.10;94.60
15343;DHT22;7771;48.478;8.936;2023-04-30T10:12:06;19.10;94.80
15343;DHT22;7771;48.478;8.936;2023-04-30T10:14:32;19.20;94.80
15343;DHT22;7771;48.478;8.936;2023-04-30T10:17:02;19.20;94.50
15343;DHT22;7771;48.478;8.936;2023-04-30T10:19:30;19.30;94.10
15343;DHT22;7771;48.478;8.936;2023-04-30T10:21:56;19.40;93.70
15343;DHT22;7771;48.478;8.936;2023-04-30T10:24:24;19.40;93.60
15343;DHT22;7771;48.478;8.936;2023-04-30T10:26:51;19.40;93.40
15343;DHT22;7771;48.478;8.936;2023-04-30T10:29:19;19.40;93.50
15343;DHT22;7771;48.478;8.936;2023-04-30T10:31:47;19.30;93.20
15343;DHT22;7771;48.478;8.936;2023-04-30T10:34:30;19.30;93.30
15343;DHT22;7771;48.478;8.936;2023-04-30T10:36:54;19.30;93.10
15343;DHT22;7771;48.478;8.936;2023-04-30T10:39:20;19.10;93.50
15343;DHT22;7771;48.478;8.936;2023-04-30T10:41:47;19.10;93.50
15343;DHT22;7771;48.478;8.936;2023-04-30T10:44:19;19.00;93.20
15343;DHT22;7771;48.478;8.936;2023-04-30T10:49:10;18.80;93.60
15343;DHT22;7771;48.478;8.936;2023-04-30T10:51:47;18.80;93.70
15343;DHT22;7771;48.478;8.936;2023-04-30T10:54:15;18.70;94.00
15343;DHT22;7771;48.478;8.936;2023-04-30T10:56:43;18.70;94.10
15343;DHT22;7771;48.478;8.936;2023-04-30T10:59:10;18.60;94.20
15343;DHT22;7771;48.478;8.936;2023-04-30T11:04:16;18.70;94.20
15343;DHT22;7771;48.478;8.936;2023-04-30T11:07:01;18.80;93.70
15343;DHT22;7771;48.478;8.936;2023-04-30T11:09:43;18.90;93.70
15343;DHT22;7771;48.478;8.936;2023-04-30T11:12:11;18.80;93.60
15343;DHT22;7771;48.478;8.936;2023-04-30T11:14:40;18.90;93.30
15343;DHT22;7771;48.478;8.936;2023-04-30T11:17:06;18.80;93.30
15343;DHT22;7771;48.478;8.936;2023-04-30T11:19:33;18.90;93.50
15343;DHT22;7771;48.478;8.936;2023-04-30T11:22:17;19.00;93.90
15343;DHT22;7771;48.478;8.936;2023-04-30T11:24:52;19.00;93.60
15343;DHT22;7771;48.478;8.936;2023-04-30T11:27:21;18.90;93.20
15343;DHT22;7771;48.478;8.936;2023-04-30T11:32:19;19.00;93.10
15343;DHT22;7771;48.478;8.936;2023-04-30T11:34:46;19.00;92.70
15343;DHT22;7771;48.478;8.936;2023-04-30T11:37:17;19.10;93.00
15343;DHT22;7771;48.478;8.936;2023-04-30T11:39:41;19.20;93.00
15343;DHT22;7771;48.478;8.936;2023-04-30T11:42:07;19.30;92.50
15343;DHT22;7771;48.478;8.936;2023-04-30T11:44:34;19.40;92.60
15343;DHT22;7771;48.478;8.936;2023-04-30T11:47:01;19.40;92.50
15343;DHT22;7771;48.478;8.936;2023-04-30T11:49:28;19.50;92.40
15343;DHT22;7771;48.478;8.936;2023-04-30T11:51:56;19.70;91.80
15343;DHT22;7771;48.478;8.936;2023-04-30T11:54:23;19.80;91.40
15343;DHT22;7771;48.478;8.936;2023-04-30T11:56:51;19.90;91.40
15343;DHT22;7771;48.478;8.936;2023-04-30T11:59:17;19.90;91.40
15343;DHT22;7771;48.478;8.936;2023-04-30T12:01:45;19.90;90.70
15343;DHT22;7771;48.478;8.936;2023-04-30T12:04:11;19.90;90.80
15343;DHT22;7771;48.478;8.936;2023-04-30T12:06:38;19.90;90.40
15343;DHT22;7771;48.478;8.936;2023-04-30T12:09:05;19.80;90.30
15343;DHT22;7771;48.478;8.936;2023-04-30T12:11:33;19.70;90.60
15343;DHT22;7771;48.478;8.936;2023-04-30T12:14:01;19.70;90.80
15343;DHT22;7771;48.478;8.936;2023-04-30T12:16:39;19.70;90.70
15343;DHT22;7771;48.478;8.936;2023-04-30T12:19:06;19.70;90.80
15343;DHT22;7771;48.478;8.936;2023-04-30T12:21:33;19.80;90.70
15343;DHT22;7771;48.478;8.936;2023-04-30T12:24:00;19.90;90.60
15343;DHT22;7771;48.478;8.936;2023-04-30T12:26:34;20.00;90.50
15343;DHT22;7771;48.478;8.936;2023-04-30T12:29:02;20.20;90.90
15343;DHT22;7771;48.478;8.936;2023-04-30T12:31:27;20.30;90.20
15343;DHT22;7771;48.478;8.936;2023-04-30T12:33:54;20.50;90.10
15343;DHT22;7771;48.478;8.936;2023-04-30T12:36:20;20.60;90.10
15343;DHT22;7771;48.478;8.936;2023-04-30T12:38:47;20.60;89.50
15343;DHT22;7771;48.478;8.936;2023-04-30T12:41:14;20.50;89.60
15343;DHT22;7771;48.478;8.936;2023-04-30T12:43:42;20.50;89.50
15343;DHT22;7771;48.478;8.936;2023-04-30T12:46:09;20.60;88.90
15343;DHT22;7771;48.478;8.936;2023-04-30T12:48:42;20.60;89.20
15343;DHT22;7771;48.478;8.936;2023-04-30T12:53:44;20.80;87.40
15343;DHT22;7771;48.478;8.936;2023-04-30T12:58:38;20.90;86.90
15343;DHT22;7771;48.478;8.936;2023-04-30T13:01:16;20.90;87.60
15343;DHT22;7771;48.478;8.936;2023-04-30T13:03:42;21.00;86.30
15343;DHT22;7771;48.478;8.936;2023-04-30T13:06:09;20.90;86.50
15343;DHT22;7771;48.478;8.936;2023-04-30T13:08:36;20.90;86.70
15343;DHT22;7771;48.478;8.936;2023-04-30T13:11:04;20.80;86.50
15343;DHT22;7771;48.478;8.936;2023-04-30T13:13:30;20.80;86.60
15343;DHT22;7771;48.478;8.936;2023-04-30T13:15:58;20.70;86.80
15343;DHT22;7771;48.478;8.936;2023-04-30T13:18:26;20.60;86.70
15343;DHT22;7771;48.478;8.936;2023-04-30T13:20:52;20.50;87.60
15343;DHT22;7771;48.478;8.936;2023-04-30T13:23:19;20.40;88.30
15343;DHT22;7771;48.478;8.936;2023-04-30T13:25:46;20.30;87.80
15343;DHT22;7771;48.478;8.936;2023-04-30T13:30:41;20.30;87.40
15343;DHT22;7771;48.478;8.936;2023-04-30T13:33:08;20.40;87.60
15343;DHT22;7771;48.478;8.936;2023-04-30T13:35:35;20.50;87.10
15343;DHT22;7771;48.478;8.936;2023-04-30T13:38:01;20.50;86.90
15343;DHT22;7771;48.478;8.936;2023-04-30T13:40:28;20.60;86.20
15343;DHT22;7771;48.478;8.936;2023-04-30T13:42:55;20.60;86.50
15343;DHT22;7771;48.478;8.936;2023-04-30T13:45:23;20.60;86.70
15343;DHT22;7771;48.478;8.936;2023-04-30T13:50:17;20.50;87.80
15343;DHT22;7771;48.478;8.936;2023-04-30T13:52:44;20.50;86.60
15343;DHT22;7771;48.478;8.936;2023-04-30T13:55:11;20.50;86.90
15343;DHT22;7771;48.478;8.936;2023-04-30T13:57:38;20.60;86.90
15343;DHT22;7771;48.478;8.936;2023-04-30T14:00:06;20.50;86.00
15343;DHT22;7771;48.478;8.936;2023-04-30T14:02:33;20.40;86.70
15343;DHT22;7771;48.478;8.936;2023-04-30T14:05:01;20.30;88.00
15343;DHT22;7771;48.478;8.936;2023-04-30T14:07:27;20.30;88.00
15343;DHT22;7771;48.478;8.936;2023-04-30T14:09:54;20.30;87.60
15343;DHT22;7771;48.478;8.936;2023-04-30T14:12:20;20.30;87.90
15343;DHT22;7771;48.478;8.936;2023-04-30T14:14:49;20.30;88.10
15343;DHT22;7771;48.478;8.936;2023-04-30T14:17:16;20.20;88.00
15343;DHT22;7771;48.478;8.936;2023-04-30T14:19:43;20.20;88.30
15343;DHT22;7771;48.478;8.936;2023-04-30T14:22:10;20.20;89.00
15343;DHT22;7771;48.478;8.936;2023-04-30T14:27:05;20.30;88.40
15343;DHT22;7771;48.478;8.936;2023-04-30T14:29:32;20.30;87.80
15343;DHT22;7771;48.478;8.936;2023-04-30T14:32:05;20.30;88.00
15343;DHT22;7771;48.478;8.936;2023-04-30T14:34:32;20.40;87.30
15343;DHT22;7771;48.478;8.936;2023-04-30T14:37:00;20.40;87.10
15343;DHT22;7771;48.478;8.936;2023-04-30T14:39:25;20.40;88.80
15343;DHT22;7771;48.478;8.936;2023-04-30T14:41:52;20.40;88.50
15343;DHT22;7771;48.478;8.936;2023-04-30T14:44:19;20.40;87.30
15343;DHT22;7771;48.478;8.936;2023-04-30T14:46:46;20.30;86.90
15343;DHT22;7771;48.478;8.936;2023-04-30T14:49:13;20.20;88.00
15343;DHT22;7771;48.478;8.936;2023-04-30T14:51:41;20.20;87.80
15343;DHT22;7771;48.478;8.936;2023-04-30T14:54:08;20.10;88.10
15343;DHT22;7771;48.478;8.936;2023-04-30T14:56:34;20.10;88.40
15343;DHT22;7771;48.478;8.936;2023-04-30T14:59:02;20.10;88.10
15343;DHT22;7771;48.478;8.936;2023-04-30T15:01:29;20.10;87.50
15343;DHT22;7771;48.478;8.936;2023-04-30T15:03:56;20.10;87.70
15343;DHT22;7771;48.478;8.936;2023-04-30T15:06:22;19.90;88.30
15343;DHT22;7771;48.478;8.936;2023-04-30T15:08:50;19.80;88.50
15343;DHT22;7771;48.478;8.936;2023-04-30T15:11:16;19.80;88.30
15343;DHT22;7771;48.478;8.936;2023-04-30T15:16:13;19.70;88.50
15343;DHT22;7771;48.478;8.936;2023-04-30T15:18:39;19.60;88.10
15343;DHT22;7771;48.478;8.936;2023-04-30T15:21:06;19.50;88.10
15343;DHT22;7771;48.478;8.936;2023-04-30T15:23:34;19.40;88.70
15343;DHT22;7771;48.478;8.936;2023-04-30T15:28:30;19.30;89.40
15343;DHT22;7771;48.478;8.936;2023-04-30T15:30:55;19.30;89.50
15343;DHT22;7771;48.478;8.936;2023-04-30T15:33:23;19.30;89.30
15343;DHT22;7771;48.478;8.936;2023-04-30T15:35:51;19.30;89.80
15343;DHT22;7771;48.478;8.936;2023-04-30T15:38:18;19.40;90.00
15343;DHT22;7771;48.478;8.936;2023-04-30T15:43:14;19.40;89.40
15343;DHT22;7771;48.478;8.936;2023-04-30T15:45:42;19.40;88.40
15343;DHT22;7771;48.478;8.936;2023-04-30T15:48:09;19.30;89.00
15343;DHT22;7771;48.478;8.936;2023-04-30T15:50:38;19.30;88.40
15343;DHT22;7771;48.478;8.936;2023-04-30T15:55:34;19.30;89.80
15343;DHT22;7771;48.478;8.936;2023-04-30T15:58:00;19.30;89.80
15343;DHT22;7771;48.478;8.936;2023-04-30T16:00:28;19.30;89.10
15343;DHT22;7771;48.478;8.936;2023-04-30T16:02:56;19.20;88.80
15343;DHT22;7771;48.478;8.936;2023-04-30T16:05:23;19.20;89.30
15343;DHT22;7771;48.478;8.936;2023-04-30T16:07:50;19.20;89.30
15343;DHT22;7771;48.478;8.936;2023-04-30T16:10:17;19.20;90.00
15343;DHT22;7771;48.478;8.936;2023-04-30T16:12:44;19.20;89.90
15343;DHT22;7771;48.478;8.936;2023-04-30T16:15:11;19.10;89.10
15343;DHT22;7771;48.478;8.936;2023-04-30T16:17:39;19.10;89.60
15343;DHT22;7771;48.478;8.936;2023-04-30T16:20:07;19.00;89.90
15343;DHT22;7771;48.478;8.936;2023-04-30T16:22:34;19.00;90.10
15343;DHT22;7771;48.478;8.936;2023-04-30T16:25:01;18.90;89.80
15343;DHT22;7771;48.478;8.936;2023-04-30T16:27:28;18.90;90.10
15343;DHT22;7771;48.478;8.936;2023-04-30T16:29:55;18.90;90.30
15343;DHT22;7771;48.478;8.936;2023-04-30T16:34:51;18.70;90.70
15343;DHT22;7771;48.478;8.936;2023-04-30T16:37:18;18.70;90.40
15343;DHT22;7771;48.478;8.936;2023-04-30T16:39:44;18.70;90.50
15343;DHT22;7771;48.478;8.936;2023-04-30T16:44:40;18.60;90.70
15343;DHT22;7771;48.478;8.936;2023-04-30T16:49:36;18.50;91.20
15343;DHT22;7771;48.478;8.936;2023-04-30T16:52:04;18.40;91.30
15343;DHT22;7771;48.478;8.936;2023-04-30T16:56:59;18.50;91.30
15343;DHT22;7771;48.478;8.936;2023-04-30T16:59:26;18.50;91.40
15343;DHT22;7771;48.478;8.936;2023-04-30T17:01:53;18.40;91.30
15343;DHT22;7771;48.478;8.936;2023-04-30T17:06:48;18.50;91.00
15343;DHT22;7771;48.478;8.936;2023-04-30T17:14:11;18.30;91.10
15343;DHT22;7771;48.478;8.936;2023-04-30T17:16:39;18.20;90.70
15343;DHT22;7771;48.478;8.936;2023-04-30T17:21:34;18.10;91.00
15343;DHT22;7771;48.478;8.936;2023-04-30T17:24:01;18.10;91.20
15343;DHT22;7771;48.478;8.936;2023-04-30T17:26:29;18.00;91.30
15343;DHT22;7771;48.478;8.936;2023-04-30T17:28:56;18.00;91.50